Terminal Aerodrome Forecast
Issued by NWS

Home | Current Version | Previous Version | Text Only | Print | Product List | Glossary On
Versions: 1 2 3 4 5 6 7 8 9 10 11 12 13 14 15 16 17 18 19 20 21 22 23 24 25 26 27 28 29 30 31 32 33 34 35 36 37 38 39 40
000
FTUS45 KSLC 251546 AAB
TAFOGD
TAF AMD
KOGD 251546Z 2516/2612 35006KT 1/2SM SN FZFG OVC010
     FM251600 35006KT 2SM -SN BKN012 OVC020
      TEMPO 2516/2518 3/4SM -SN BR BKN008 OVC015
     FM251800 30007KT 2SM -SN BR SCT008 OVC020
     FM260300 35007KT P6SM -SHSN SCT015 BKN035=

USA.gov is the U.S. government's official web portal to all federal, state and local government web resources and services.